createdAt,value
2022-07-25T00:01:20.443Z,3.87
2022-07-25T00:03:51.463Z,3.77
2022-07-25T00:06:20.410Z,3.70
2022-07-25T00:08:49.225Z,3.73
2022-07-25T00:11:18.229Z,3.60
2022-07-25T00:13:47.293Z,3.83
2022-07-25T00:16:16.234Z,3.67
2022-07-25T00:18:45.196Z,3.37
2022-07-25T00:21:15.377Z,3.70
2022-07-25T00:23:44.048Z,3.67
2022-07-25T00:26:12.860Z,3.43
2022-07-25T00:28:41.573Z,4.10
2022-07-25T00:31:10.994Z,3.57
2022-07-25T00:33:41.371Z,3.83
2022-07-25T00:36:10.881Z,4.03
2022-07-25T00:38:41.121Z,3.77
2022-07-25T00:41:09.985Z,3.67
2022-07-25T00:43:41.128Z,4.10
2022-07-25T00:46:10.108Z,4.17
2022-07-25T00:48:39.148Z,3.60
2022-07-25T00:51:08.502Z,3.53
2022-07-25T00:53:37.512Z,4.53
2022-07-25T00:56:09.100Z,3.37
2022-07-25T00:58:37.972Z,3.90
2022-07-25T01:01:07.125Z,3.37
2022-07-25T01:03:36.720Z,3.87
2022-07-25T01:06:05.648Z,3.70
2022-07-25T01:08:34.599Z,4.40
2022-07-25T01:11:03.552Z,4.13
2022-07-25T01:13:35.998Z,4.60
2022-07-25T01:16:04.964Z,4.07
2022-07-25T01:18:34.810Z,3.57
2022-07-25T01:21:05.775Z,3.33
2022-07-25T01:23:34.952Z,4.23
2022-07-25T01:26:03.854Z,3.60
2022-07-25T01:28:32.895Z,3.97
2022-07-25T01:31:01.806Z,4.03
2022-07-25T01:33:30.769Z,3.80
2022-07-25T01:35:59.733Z,3.77
2022-07-25T01:38:29.964Z,4.13
2022-07-25T01:40:58.820Z,3.80
2022-07-25T01:43:27.518Z,4.07
2022-07-25T01:45:56.674Z,3.37
2022-07-25T01:48:26.658Z,3.83
2022-07-25T01:50:55.490Z,4.10
2022-07-25T01:53:24.191Z,4.27
2022-07-25T01:55:55.882Z,4.07
2022-07-25T01:58:26.295Z,4.20
2022-07-25T02:00:55.959Z,4.33
2022-07-25T02:03:34.101Z,4.23
2022-07-25T02:06:05.219Z,3.87
2022-07-25T02:08:34.215Z,4.40
2022-07-25T02:11:04.480Z,4.43
2022-07-25T02:13:33.562Z,4.40
2022-07-25T02:16:02.382Z,4.50
2022-07-25T02:18:33.051Z,4.20
2022-07-25T02:21:07.340Z,4.20
2022-07-25T02:23:44.394Z,3.93
2022-07-25T02:26:15.698Z,3.93
2022-07-25T02:28:46.507Z,3.80
2022-07-25T02:31:15.500Z,3.80
2022-07-25T02:33:44.727Z,4.20
2022-07-25T02:36:16.543Z,3.90
2022-07-25T02:38:45.429Z,4.80
2022-07-25T02:41:15.781Z,4.37
2022-07-25T02:43:44.632Z,4.10
2022-07-25T02:46:13.426Z,4.20
2022-07-25T02:48:45.003Z,3.80
2022-07-25T02:51:13.809Z,4.50
2022-07-25T02:53:57.285Z,4.47
2022-07-25T02:56:30.278Z,3.97
2022-07-25T02:59:00.945Z,4.20
2022-07-25T03:01:32.393Z,4.40
2022-07-25T03:04:01.396Z,4.40
2022-07-25T03:06:30.286Z,4.37
2022-07-25T03:08:59.250Z,4.60
2022-07-25T03:11:29.744Z,4.63
2022-07-25T03:13:58.516Z,4.63
2022-07-25T03:16:29.815Z,4.83
2022-07-25T03:18:59.525Z,4.50
2022-07-25T03:21:30.570Z,4.40
2022-07-25T03:24:00.429Z,4.63
2022-07-25T03:26:30.666Z,4.50
2022-07-25T03:28:59.489Z,5.43
2022-07-25T03:31:28.916Z,4.50
2022-07-25T03:33:58.227Z,4.90
2022-07-25T03:36:29.680Z,4.50
2022-07-25T03:38:58.540Z,4.60
2022-07-25T03:41:33.343Z,4.50
2022-07-25T03:44:04.552Z,4.57
2022-07-25T03:46:34.008Z,5.03
2022-07-25T03:49:05.663Z,4.47
2022-07-25T03:51:35.132Z,5.50
2022-07-25T03:54:07.048Z,5.40
2022-07-25T03:56:44.032Z,5.57
2022-07-25T03:59:16.631Z,4.67
2022-07-25T04:01:47.313Z,4.30
2022-07-25T04:04:20.987Z,4.10
2022-07-25T04:06:50.519Z,4.30
2022-07-25T04:09:19.716Z,4.80
2022-07-25T04:11:53.724Z,4.90
2022-07-25T04:14:23.251Z,4.83
2022-07-25T04:16:56.695Z,4.17
2022-07-25T04:19:26.316Z,4.33
2022-07-25T04:21:58.767Z,4.50
2022-07-25T04:24:28.407Z,4.40
2022-07-25T04:26:59.653Z,4.13
2022-07-25T04:29:29.541Z,4.07
2022-07-25T04:31:58.646Z,4.60
2022-07-25T04:34:28.964Z,4.20
2022-07-25T04:36:58.361Z,4.10
2022-07-25T04:39:27.789Z,4.03
2022-07-25T04:41:56.917Z,3.90
2022-07-25T04:44:28.316Z,4.30
2022-07-25T04:46:57.173Z,3.97
2022-07-25T04:49:26.263Z,3.80
2022-07-25T04:51:55.591Z,4.50
2022-07-25T04:54:24.528Z,4.27
2022-07-25T04:56:55.678Z,4.40
2022-07-25T04:59:24.913Z,4.37
2022-07-25T05:01:59.200Z,4.10
2022-07-25T05:04:29.260Z,3.93
2022-07-25T05:06:58.685Z,3.77
2022-07-25T05:09:28.253Z,4.10
2022-07-25T05:11:57.756Z,4.40
2022-07-25T05:14:27.813Z,3.80
2022-07-25T05:16:58.922Z,4.87
2022-07-25T05:19:29.412Z,4.53
2022-07-25T05:21:59.317Z,4.27
2022-07-25T05:24:30.200Z,4.47
2022-07-25T05:26:59.635Z,3.50
2022-07-25T05:29:30.460Z,4.10
2022-07-25T05:32:02.423Z,3.80
2022-07-25T05:34:31.539Z,3.60
2022-07-25T05:37:00.809Z,4.73
2022-07-25T05:39:31.124Z,3.83
2022-07-25T05:42:00.765Z,3.87
2022-07-25T05:44:35.007Z,3.30
2022-07-25T05:47:09.540Z,3.40
2022-07-25T05:49:40.041Z,3.37
2022-07-25T05:52:13.064Z,3.57
2022-07-25T05:54:43.403Z,3.10
2022-07-25T05:57:12.987Z,2.97
2022-07-25T05:59:45.547Z,2.90
2022-07-25T06:02:17.208Z,2.90
2022-07-25T06:04:48.480Z,2.97
2022-07-25T06:07:18.873Z,3.00
2022-07-25T06:09:48.922Z,2.55
2022-07-25T06:12:18.960Z,2.30
2022-07-25T06:14:48.574Z,2.63
2022-07-25T06:17:22.411Z,2.00
2022-07-25T06:19:51.868Z,2.33
2022-07-25T06:22:22.133Z,2.45
2022-07-25T06:24:51.431Z,2.75
2022-07-25T06:27:23.927Z,2.10
2022-07-25T06:29:59.709Z,2.67
2022-07-25T06:32:47.896Z,2.17
2022-07-25T06:35:20.531Z,2.15
2022-07-25T06:37:53.110Z,2.08
2022-07-25T06:40:22.683Z,2.00
2022-07-25T06:42:55.025Z,2.20
2022-07-25T06:45:27.167Z,2.05
2022-07-25T06:48:03.026Z,2.33
2022-07-25T06:50:36.369Z,2.03
2022-07-25T06:53:16.577Z,1.95
2022-07-25T06:55:47.534Z,2.10
2022-07-25T06:58:17.898Z,1.85
2022-07-25T07:00:54.084Z,2.00
2022-07-25T07:03:27.967Z,1.90
2022-07-25T07:05:58.361Z,2.00
2022-07-25T07:08:33.068Z,1.92
2022-07-25T07:11:04.924Z,1.90
2022-07-25T07:13:35.965Z,1.85
2022-07-25T07:16:10.782Z,1.90
2022-07-25T07:18:48.778Z,2.13
2022-07-25T07:21:23.434Z,1.80
2022-07-25T07:23:54.018Z,1.75
2022-07-25T07:26:25.935Z,1.90
2022-07-25T07:28:59.058Z,2.20
2022-07-25T07:31:29.482Z,1.83
2022-07-25T07:34:01.588Z,1.77
2022-07-25T07:36:31.776Z,2.00
2022-07-25T07:39:01.484Z,2.15
2022-07-25T07:41:32.811Z,1.92
2022-07-25T07:44:06.081Z,1.75
2022-07-25T07:46:42.133Z,1.75
2022-07-25T07:49:17.449Z,1.90
2022-07-25T07:51:48.779Z,3.28
2022-07-25T07:54:35.719Z,2.78
2022-07-25T07:57:05.823Z,1.75
2022-07-25T07:59:35.198Z,1.90
2022-07-25T08:02:05.559Z,1.65
2022-07-25T08:04:36.748Z,1.52
2022-07-25T08:07:10.167Z,1.52
2022-07-25T08:09:41.096Z,1.38
2022-07-25T08:12:11.099Z,1.48
2022-07-25T08:14:41.326Z,1.52
2022-07-25T08:17:12.873Z,1.70
2022-07-25T08:19:47.517Z,1.48
2022-07-25T08:22:19.070Z,1.40
2022-07-25T08:24:48.540Z,1.58
2022-07-25T08:27:21.758Z,1.38
2022-07-25T08:29:52.149Z,1.35
2022-07-25T08:32:24.408Z,1.42
2022-07-25T08:34:59.755Z,1.50
2022-07-25T08:37:34.366Z,1.33
2022-07-25T08:40:05.370Z,1.20
2022-07-25T08:42:39.713Z,1.60
2022-07-25T08:45:14.780Z,1.40
2022-07-25T08:47:50.821Z,1.70
2022-07-25T08:50:25.982Z,1.33
2022-07-25T08:53:30.448Z,1.40
2022-07-25T08:55:52.966Z,1.40
2022-07-25T08:58:23.713Z,1.33
2022-07-25T09:00:53.489Z,1.40
2022-07-25T09:03:22.963Z,1.30
2022-07-25T09:05:54.113Z,1.40
2022-07-25T09:08:23.447Z,1.40
2022-07-25T09:10:57.134Z,1.00
2022-07-25T09:13:26.733Z,1.48
2022-07-25T09:16:00.553Z,1.10
2022-07-25T09:18:30.623Z,1.30
2022-07-25T09:21:08.317Z,1.10
2022-07-25T09:23:41.249Z,1.50
2022-07-25T09:26:13.154Z,1.02
2022-07-25T09:28:43.841Z,1.00
2022-07-25T09:31:14.201Z,1.25
2022-07-25T09:33:49.561Z,1.25
2022-07-25T09:36:20.667Z,1.42
2022-07-25T09:38:54.292Z,1.27
2022-07-25T09:44:23.396Z,1.10
2022-07-25T09:46:53.727Z,1.10
2022-07-25T09:49:25.649Z,1.30
2022-07-25T09:51:58.215Z,1.30
2022-07-25T09:54:28.241Z,1.02
2022-07-25T09:56:57.560Z,1.20
2022-07-25T09:59:26.793Z,1.10
2022-07-25T10:02:08.202Z,1.10
2022-07-25T10:04:49.658Z,1.20
2022-07-25T10:07:25.853Z,0.98
2022-07-25T10:09:58.503Z,1.05
2022-07-25T10:12:27.916Z,1.10
2022-07-25T10:15:12.648Z,1.10
2022-07-25T10:17:43.706Z,1.60
2022-07-25T10:20:13.607Z,1.10
2022-07-25T10:22:57.129Z,1.20
2022-07-25T10:25:28.526Z,1.00
2022-07-25T10:28:04.430Z,0.90
2022-07-25T10:30:38.812Z,0.80
2022-07-25T10:33:14.009Z,0.90
2022-07-25T10:35:43.712Z,1.20
2022-07-25T10:38:14.542Z,0.90
2022-07-25T10:40:45.435Z,1.15
2022-07-25T10:43:19.996Z,1.13
2022-07-25T10:45:54.106Z,1.20
2022-07-25T10:48:25.583Z,1.02
2022-07-25T10:50:59.604Z,1.10
2022-07-25T10:53:45.894Z,1.38
2022-07-25T10:56:20.242Z,1.38
2022-07-25T10:58:55.436Z,1.13
2022-07-25T11:01:26.964Z,1.00
2022-07-25T11:03:58.966Z,1.20
2022-07-25T11:06:36.469Z,1.20
2022-07-25T11:09:22.688Z,1.30
2022-07-25T11:11:57.838Z,1.10
2022-07-25T11:14:32.978Z,1.10
2022-07-25T11:17:13.693Z,0.95
2022-07-25T11:19:44.620Z,1.10
2022-07-25T11:22:17.144Z,1.20
2022-07-25T11:24:51.641Z,1.13
2022-07-25T11:27:27.424Z,1.20
2022-07-25T11:30:09.445Z,1.38
2022-07-25T11:32:43.308Z,1.23
2022-07-25T11:35:16.021Z,1.00
2022-07-25T11:37:49.389Z,1.17
2022-07-25T11:40:22.046Z,1.30
2022-07-25T11:42:54.148Z,1.35
2022-07-25T11:45:26.553Z,1.83
2022-07-25T11:48:10.623Z,1.88
2022-07-25T11:50:41.952Z,1.20
2022-07-25T11:53:15.160Z,1.20
2022-07-25T11:55:59.336Z,1.45
2022-07-25T11:58:33.909Z,1.10
2022-07-25T12:01:04.193Z,1.10
2022-07-25T12:03:40.799Z,1.25
2022-07-25T12:06:11.872Z,1.40
2022-07-25T12:08:44.423Z,1.38
2022-07-25T12:11:25.064Z,1.30
2022-07-25T12:14:07.402Z,1.25
2022-07-25T12:16:50.251Z,1.20
2022-07-25T12:19:27.736Z,1.55
2022-07-25T12:21:59.295Z,1.30
2022-07-25T12:24:28.650Z,1.10
2022-07-25T12:26:59.731Z,1.42
2022-07-25T12:29:29.515Z,1.20
2022-07-25T12:31:58.647Z,1.13
2022-07-25T12:34:30.879Z,1.10
2022-07-25T12:37:01.577Z,1.42
2022-07-25T12:39:30.830Z,1.40
2022-07-25T12:42:05.483Z,1.10
2022-07-25T12:44:35.143Z,1.48
2022-07-25T12:47:05.271Z,1.73
2022-07-25T12:49:38.879Z,1.30
2022-07-25T12:52:11.732Z,1.20
2022-07-25T12:54:41.340Z,1.20
2022-07-25T12:57:12.558Z,1.10
2022-07-25T12:59:44.029Z,1.20
2022-07-25T13:02:13.478Z,1.10
2022-07-25T13:04:43.386Z,1.20
2022-07-25T13:07:16.835Z,1.00
2022-07-25T13:09:48.026Z,1.08
2022-07-25T13:12:21.194Z,1.23
2022-07-25T13:14:50.652Z,1.50
2022-07-25T13:17:27.259Z,1.33
2022-07-25T13:19:57.860Z,1.10
2022-07-25T13:22:29.306Z,1.20
2022-07-25T13:24:59.364Z,1.00
2022-07-25T13:27:32.130Z,1.13
2022-07-25T13:30:01.866Z,1.02
2022-07-25T13:32:33.171Z,1.25
2022-07-25T13:35:02.987Z,1.10
2022-07-25T13:37:37.202Z,1.10
2022-07-25T13:40:10.913Z,1.25
2022-07-25T13:42:49.366Z,0.90
2022-07-25T13:45:22.655Z,1.00
2022-07-25T13:48:12.213Z,0.93
2022-07-25T13:50:42.748Z,1.00
2022-07-25T13:53:13.449Z,1.00
2022-07-25T13:55:43.386Z,1.02
2022-07-25T13:58:14.658Z,1.10
2022-07-25T14:00:49.109Z,0.95
2022-07-25T14:03:20.803Z,1.23
2022-07-25T14:05:51.599Z,1.10
2022-07-25T14:08:21.884Z,1.13
2022-07-25T14:10:51.237Z,1.20
2022-07-25T14:13:22.828Z,1.17
2022-07-25T14:15:51.971Z,1.20
2022-07-25T14:18:21.691Z,1.40
2022-07-25T14:20:51.903Z,1.00
2022-07-25T14:23:21.463Z,1.40
2022-07-25T14:25:51.027Z,1.20
2022-07-25T14:28:22.289Z,1.02
2022-07-25T14:30:55.963Z,1.30
2022-07-25T14:33:27.379Z,1.35
2022-07-25T14:35:58.383Z,1.10
2022-07-25T14:38:29.616Z,1.10
2022-07-25T14:41:00.117Z,1.10
2022-07-25T14:43:33.276Z,1.20
2022-07-25T14:46:03.991Z,1.40
2022-07-25T14:48:34.262Z,1.00
2022-07-25T14:51:05.038Z,1.13
2022-07-25T14:53:37.710Z,1.17
2022-07-25T14:56:09.602Z,1.00
2022-07-25T14:58:41.082Z,1.10
2022-07-25T15:01:11.884Z,1.02
2022-07-25T15:03:41.799Z,1.00
2022-07-25T15:06:14.287Z,1.17
2022-07-25T15:08:45.522Z,1.15
2022-07-25T15:11:20.007Z,1.27
2022-07-25T15:13:51.624Z,1.58
2022-07-25T15:16:23.863Z,1.27
2022-07-25T15:21:45.646Z,1.30
2022-07-25T15:24:16.223Z,1.20
2022-07-25T15:26:45.475Z,1.35
2022-07-25T15:29:21.061Z,1.38
2022-07-25T15:31:51.856Z,1.20
2022-07-25T15:34:23.450Z,0.90
2022-07-25T15:36:54.051Z,1.20
2022-07-25T15:39:25.361Z,1.30
2022-07-25T15:41:59.085Z,0.98
2022-07-25T15:44:33.385Z,1.20
2022-07-25T15:47:03.021Z,1.25
2022-07-25T15:49:35.425Z,1.15
2022-07-25T15:52:05.193Z,1.25
2022-07-25T15:54:34.727Z,0.95
2022-07-25T15:57:05.487Z,1.30
2022-07-25T15:59:37.554Z,1.58
2022-07-25T16:02:13.348Z,1.33
2022-07-25T16:04:43.461Z,1.40
2022-07-25T16:07:14.912Z,1.40
2022-07-25T16:09:45.304Z,1.42
2022-07-25T16:12:16.527Z,1.55
2022-07-25T16:14:53.593Z,1.55
2022-07-25T16:17:27.332Z,1.23
2022-07-25T16:19:57.420Z,1.50
2022-07-25T16:22:27.597Z,1.30
2022-07-25T16:24:56.973Z,1.60
2022-07-25T16:27:26.191Z,1.50
2022-07-25T16:29:57.719Z,1.33
2022-07-25T16:32:28.883Z,1.42
2022-07-25T16:34:59.048Z,1.30
2022-07-25T16:37:29.957Z,1.58
2022-07-25T16:40:01.135Z,1.25
2022-07-25T16:42:30.660Z,1.60
2022-07-25T16:45:03.262Z,1.98
2022-07-25T16:47:33.223Z,1.27
2022-07-25T16:50:16.309Z,1.60
2022-07-25T16:52:50.332Z,1.50
2022-07-25T16:55:32.364Z,1.45
2022-07-25T16:58:12.287Z,1.95
2022-07-25T17:00:50.950Z,1.88
2022-07-25T17:03:22.251Z,2.35
2022-07-25T17:05:54.563Z,2.00
2022-07-25T17:08:25.222Z,2.28
2022-07-25T17:10:56.343Z,2.10
2022-07-25T17:13:32.266Z,2.20
2022-07-25T17:16:09.927Z,2.03
2022-07-25T17:21:27.941Z,2.00
2022-07-25T17:24:01.879Z,1.92
2022-07-25T17:26:33.902Z,1.92
2022-07-25T17:29:08.170Z,1.80
2022-07-25T17:31:41.946Z,2.22
2022-07-25T17:34:15.491Z,2.05
2022-07-25T17:36:44.838Z,1.95
2022-07-25T17:39:17.494Z,2.28
2022-07-25T17:41:49.461Z,2.25
2022-07-25T17:44:20.218Z,1.90
2022-07-25T17:46:58.307Z,1.77
2022-07-25T17:49:32.045Z,1.92
2022-07-25T17:52:07.173Z,1.85
2022-07-25T17:54:39.681Z,2.22
2022-07-25T17:57:12.205Z,1.70
2022-07-25T17:59:50.778Z,2.20
2022-07-25T18:02:29.969Z,1.73
2022-07-25T18:05:04.220Z,1.70
2022-07-25T18:07:33.779Z,2.10
2022-07-25T18:10:05.225Z,3.35
2022-07-25T18:12:36.541Z,2.20
2022-07-25T18:15:08.092Z,2.05
2022-07-25T18:17:39.202Z,1.80
2022-07-25T18:20:10.129Z,1.83
2022-07-25T18:22:43.645Z,2.17
2022-07-25T18:25:18.809Z,2.33
2022-07-25T18:27:53.281Z,2.03
2022-07-25T18:30:29.107Z,2.03
2022-07-25T18:33:06.297Z,1.90
2022-07-25T18:35:35.412Z,1.90
2022-07-25T18:38:07.154Z,1.85
2022-07-25T18:40:37.871Z,2.20
2022-07-25T18:43:13.177Z,1.67
2022-07-25T18:45:48.242Z,2.03
2022-07-25T18:48:20.781Z,1.98
2022-07-25T18:50:52.874Z,1.95
2022-07-25T18:53:22.516Z,2.10
2022-07-25T18:55:58.702Z,2.28
2022-07-25T18:58:36.288Z,3.97
2022-07-25T19:01:09.716Z,2.80
2022-07-25T19:03:56.140Z,3.30
2022-07-25T19:06:27.780Z,1.83
2022-07-25T19:08:57.592Z,2.33
2022-07-25T19:11:29.481Z,2.60
2022-07-25T19:14:01.393Z,2.35
2022-07-25T19:16:33.328Z,2.20
2022-07-25T19:19:05.653Z,2.50
2022-07-25T19:21:36.675Z,6.38
2022-07-25T19:24:09.542Z,3.63
2022-07-25T19:26:41.378Z,3.25
2022-07-25T19:29:13.584Z,5.65
2022-07-25T19:31:44.377Z,3.35
2022-07-25T19:34:16.875Z,2.72
2022-07-25T19:36:47.434Z,3.92
2022-07-25T19:39:17.893Z,2.58
2022-07-25T19:41:48.387Z,2.70
2022-07-25T19:44:18.551Z,2.63
2022-07-25T19:46:49.411Z,2.05
2022-07-25T19:49:31.187Z,2.58
2022-07-25T19:52:03.262Z,2.42
2022-07-25T19:54:35.863Z,2.53
2022-07-25T19:57:06.734Z,3.20
2022-07-25T19:59:38.023Z,3.22
2022-07-25T20:02:10.293Z,2.75
2022-07-25T20:04:42.952Z,3.95
2022-07-25T20:07:12.611Z,3.60
2022-07-25T20:09:43.431Z,5.05
2022-07-25T20:12:14.515Z,7.70
2022-07-25T20:14:44.756Z,4.63
2022-07-25T20:17:15.119Z,5.55
2022-07-25T20:19:47.263Z,4.95
2022-07-25T20:22:17.705Z,7.15
2022-07-25T20:24:48.056Z,5.47
2022-07-25T20:27:18.142Z,3.80
2022-07-25T20:29:48.174Z,3.95
2022-07-25T20:32:18.334Z,4.20
2022-07-25T20:34:53.165Z,3.63
2022-07-25T20:37:23.760Z,3.40
2022-07-25T20:39:57.270Z,3.03
2022-07-25T20:42:29.249Z,2.88
2022-07-25T20:44:58.914Z,3.40
2022-07-25T20:47:28.683Z,3.00
2022-07-25T20:50:02.709Z,2.95
2022-07-25T20:52:33.884Z,2.70
2022-07-25T20:55:07.045Z,2.45
2022-07-25T20:57:37.409Z,2.60
2022-07-25T21:00:07.765Z,2.78
2022-07-25T21:02:37.611Z,3.15
2022-07-25T21:05:10.145Z,2.60
2022-07-25T21:07:40.392Z,2.20
2022-07-25T21:10:13.140Z,2.50
2022-07-25T21:12:43.330Z,2.70
2022-07-25T21:15:14.618Z,2.58
2022-07-25T21:17:45.369Z,2.88
2022-07-25T21:20:18.844Z,2.42
2022-07-25T21:22:48.996Z,2.85
2022-07-25T21:25:20.793Z,2.15
2022-07-25T21:27:51.728Z,2.75
2022-07-25T21:30:21.176Z,2.40
2022-07-25T21:32:50.856Z,2.80
2022-07-25T21:35:21.676Z,2.38
2022-07-25T21:37:51.178Z,2.75
2022-07-25T21:40:20.165Z,2.33
2022-07-25T21:42:49.612Z,2.40
2022-07-25T21:45:19.941Z,2.28
2022-07-25T21:47:49.450Z,3.08
2022-07-25T21:50:35.940Z,2.25
2022-07-25T21:53:16.353Z,2.47
2022-07-25T21:55:45.696Z,2.03
2022-07-25T21:58:15.785Z,2.85
2022-07-25T22:00:46.031Z,2.30
2022-07-25T22:03:15.433Z,2.55
2022-07-25T22:05:45.037Z,2.30
2022-07-25T22:08:18.758Z,2.35
2022-07-25T22:10:48.429Z,2.10
2022-07-25T22:13:19.694Z,2.83
2022-07-25T22:15:49.814Z,2.35
2022-07-25T22:18:19.032Z,2.30
2022-07-25T22:20:48.413Z,2.30
2022-07-25T22:23:19.416Z,2.35
2022-07-25T22:25:48.702Z,2.13
2022-07-25T22:28:18.592Z,4.38
2022-07-25T22:30:47.565Z,2.35
2022-07-25T22:33:16.605Z,2.55
2022-07-25T22:35:46.660Z,2.30
2022-07-25T22:38:16.278Z,2.63
2022-07-25T22:40:47.648Z,2.38
2022-07-25T22:43:16.655Z,2.40
2022-07-25T22:45:47.463Z,2.30
2022-07-25T22:48:17.729Z,2.47
2022-07-25T22:50:46.772Z,2.53
2022-07-25T22:53:18.012Z,2.97
2022-07-25T22:55:49.212Z,2.30
2022-07-25T22:58:18.813Z,3.03
2022-07-25T23:00:48.148Z,3.20
2022-07-25T23:03:19.519Z,2.40
2022-07-25T23:05:49.311Z,2.38
2022-07-25T23:08:23.256Z,2.50
2022-07-25T23:10:56.193Z,3.30
2022-07-25T23:13:29.143Z,2.50
2022-07-25T23:15:59.473Z,2.38
2022-07-25T23:18:30.259Z,2.80
2022-07-25T23:21:00.357Z,2.50
2022-07-25T23:23:31.814Z,2.63
2022-07-25T23:26:03.703Z,2.65
2022-07-25T23:28:36.431Z,2.47
2022-07-25T23:31:09.555Z,2.33
2022-07-25T23:33:43.119Z,2.47
2022-07-25T23:36:15.200Z,2.40
2022-07-25T23:38:44.809Z,2.60
2022-07-25T23:41:20.953Z,2.33
2022-07-25T23:43:57.107Z,2.92
2022-07-25T23:46:31.495Z,2.33
2022-07-25T23:49:03.887Z,2.85
2022-07-25T23:51:34.343Z,2.88
2022-07-25T23:54:05.994Z,3.25
2022-07-25T23:56:37.936Z,3.55
2022-07-25T23:59:07.879Z,3.38
